createdAt,value
2023-05-11T00:01:10.339Z,17.21
2023-05-11T00:03:38.436Z,17.24
2023-05-11T00:06:05.954Z,17.56
2023-05-11T00:08:33.388Z,17.54
2023-05-11T00:11:01.561Z,17.22
2023-05-11T00:13:29.046Z,17.38
2023-05-11T00:15:56.517Z,17.67
2023-05-11T00:18:24.257Z,17.24
2023-05-11T00:20:51.592Z,17.03
2023-05-11T00:23:18.934Z,17.14
2023-05-11T00:25:46.584Z,17.18
2023-05-11T00:28:13.925Z,17.06
2023-05-11T00:30:41.448Z,16.92
2023-05-11T00:33:09.093Z,16.87
2023-05-11T00:35:36.473Z,16.65
2023-05-11T00:38:03.853Z,16.98
2023-05-11T00:40:31.740Z,16.27
2023-05-11T00:42:59.125Z,16.27
2023-05-11T00:45:26.779Z,16.06
2023-05-11T00:47:54.446Z,16.22
2023-05-11T00:50:21.928Z,16.21
2023-05-11T00:52:49.306Z,16.82
2023-05-11T00:55:17.473Z,17.02
2023-05-11T00:57:44.870Z,16.20
2023-05-11T01:00:12.786Z,16.39
2023-05-11T01:02:40.727Z,17.00
2023-05-11T01:05:08.895Z,16.56
2023-05-11T01:07:48.921Z,16.81
2023-05-11T01:10:42.955Z,16.73
2023-05-11T01:13:10.180Z,17.02
2023-05-11T01:15:48.572Z,16.80
2023-05-11T01:18:30.118Z,16.99
2023-05-11T01:21:00.833Z,17.43
2023-05-11T01:23:46.865Z,17.19
2023-05-11T01:26:35.234Z,17.19
2023-05-11T01:29:20.883Z,17.51
2023-05-11T01:31:48.666Z,17.16
2023-05-11T01:34:21.518Z,17.49
2023-05-11T01:37:00.182Z,17.00
2023-05-11T01:39:33.126Z,17.49
2023-05-11T01:42:05.068Z,17.25
2023-05-11T01:44:32.447Z,17.24
2023-05-11T01:47:01.008Z,17.36
2023-05-11T01:49:29.873Z,17.43
2023-05-11T01:51:57.192Z,17.00
2023-05-11T01:54:24.542Z,17.19
2023-05-11T01:56:52.357Z,17.23
2023-05-11T01:59:19.841Z,17.36
2023-05-11T02:01:47.348Z,17.48
2023-05-11T02:04:15.006Z,16.77
2023-05-11T02:06:42.365Z,17.05
2023-05-11T02:09:10.085Z,17.11
2023-05-11T02:11:38.970Z,17.10
2023-05-11T02:14:06.369Z,16.60
2023-05-11T02:16:33.752Z,17.17
2023-05-11T02:19:01.446Z,16.96
2023-05-11T02:21:29.158Z,17.13
2023-05-11T02:23:56.599Z,17.26
2023-05-11T02:26:23.963Z,16.77
2023-05-11T02:28:51.913Z,16.25
2023-05-11T02:31:21.117Z,16.72
2023-05-11T02:33:52.124Z,17.03
2023-05-11T02:36:21.722Z,16.88
2023-05-11T02:38:50.375Z,16.77
2023-05-11T02:41:21.986Z,16.48
2023-05-11T02:43:51.406Z,16.91
2023-05-11T02:46:23.546Z,16.76
2023-05-11T02:48:54.445Z,16.49
2023-05-11T02:51:33.316Z,16.89
2023-05-11T02:54:01.326Z,16.51
2023-05-11T02:56:29.385Z,16.32
2023-05-11T02:58:56.981Z,16.58
2023-05-11T03:01:25.549Z,16.07
2023-05-11T03:03:53.753Z,16.62
2023-05-11T03:06:21.492Z,16.21
2023-05-11T03:08:49.161Z,16.56
2023-05-11T03:11:17.897Z,16.17
2023-05-11T03:13:46.021Z,16.02
2023-05-11T03:16:14.535Z,16.03
2023-05-11T03:18:42.030Z,16.22
2023-05-11T03:21:09.471Z,15.96
2023-05-11T03:23:37.123Z,16.01
2023-05-11T03:26:04.708Z,16.38
2023-05-11T03:28:32.130Z,16.03
2023-05-11T03:30:59.902Z,16.34
2023-05-11T03:33:27.269Z,16.35
2023-05-11T03:35:54.734Z,16.06
2023-05-11T03:38:23.471Z,15.95
2023-05-11T03:40:52.092Z,15.84
2023-05-11T03:43:19.892Z,16.01
2023-05-11T03:45:48.417Z,15.92
2023-05-11T03:48:16.600Z,16.33
2023-05-11T03:50:44.091Z,16.41
2023-05-11T03:53:12.019Z,16.53
2023-05-11T03:55:39.423Z,16.30
2023-05-11T03:58:08.848Z,16.39
2023-05-11T04:00:40.357Z,15.93
2023-05-11T04:03:08.858Z,16.25
2023-05-11T04:05:36.290Z,16.34
2023-05-11T04:08:04.512Z,16.21
2023-05-11T04:10:32.155Z,16.41
2023-05-11T04:12:59.525Z,15.81
2023-05-11T04:15:26.907Z,16.11
2023-05-11T04:17:54.532Z,16.26
2023-05-11T04:20:21.972Z,16.58
2023-05-11T04:22:49.331Z,16.48
2023-05-11T04:25:16.992Z,16.47
2023-05-11T04:27:45.709Z,16.64
2023-05-11T04:30:13.141Z,16.34
2023-05-11T04:32:40.853Z,16.45
2023-05-11T04:35:09.529Z,16.28
2023-05-11T04:37:37.532Z,15.29
2023-05-11T04:40:07.358Z,16.28
2023-05-11T04:42:35.111Z,16.30
2023-05-11T04:45:03.599Z,16.78
2023-05-11T04:47:32.712Z,16.33
2023-05-11T04:50:00.471Z,16.30
2023-05-11T04:52:27.979Z,17.39
2023-05-11T04:54:56.331Z,17.85
2023-05-11T04:57:24.285Z,16.94
2023-05-11T04:59:51.724Z,18.07
2023-05-11T05:02:19.391Z,18.61
2023-05-11T05:04:46.769Z,19.50
2023-05-11T05:07:15.067Z,19.83
2023-05-11T05:09:45.187Z,20.56
2023-05-11T05:12:13.918Z,21.02
2023-05-11T05:14:41.252Z,21.32
2023-05-11T05:17:09.036Z,21.31
2023-05-11T05:19:37.362Z,22.13
2023-05-11T05:22:05.925Z,23.30
2023-05-11T05:24:33.758Z,23.37
2023-05-11T05:27:01.837Z,24.22
2023-05-11T05:29:29.286Z,23.96
2023-05-11T05:31:59.941Z,24.54
2023-05-11T05:34:27.948Z,26.10
2023-05-11T05:36:55.361Z,27.71
2023-05-11T05:39:23.053Z,28.02
2023-05-11T05:41:51.137Z,27.07
2023-05-11T05:44:18.702Z,26.64
2023-05-11T05:46:46.412Z,27.09
2023-05-11T05:49:14.690Z,25.81
2023-05-11T05:51:42.953Z,26.04
2023-05-11T05:54:11.397Z,26.86
2023-05-11T05:56:40.586Z,26.01
2023-05-11T05:59:10.780Z,25.44
2023-05-11T06:01:44.220Z,27.55
2023-05-11T06:04:13.092Z,28.43
2023-05-11T06:06:40.718Z,27.73
2023-05-11T06:09:08.112Z,27.40
2023-05-11T06:11:35.723Z,25.99
2023-05-11T06:14:03.106Z,24.79
2023-05-11T06:16:31.145Z,26.09
2023-05-11T06:19:00.442Z,27.09
2023-05-11T06:21:28.118Z,25.69
2023-05-11T06:23:55.617Z,26.00
2023-05-11T06:26:25.384Z,24.32
2023-05-11T06:28:52.989Z,22.73
2023-05-11T06:31:20.475Z,24.42
2023-05-11T06:33:49.117Z,24.06
2023-05-11T06:36:19.087Z,25.92
2023-05-11T06:38:46.544Z,25.54
2023-05-11T06:41:14.234Z,24.15
2023-05-11T06:43:42.273Z,25.14
2023-05-11T06:46:17.671Z,25.80
2023-05-11T06:48:45.151Z,25.89
2023-05-11T06:51:12.563Z,26.47
2023-05-11T06:53:40.201Z,26.82
2023-05-11T06:56:08.212Z,25.57
2023-05-11T06:58:35.578Z,24.52
2023-05-11T07:01:07.736Z,25.60
2023-05-11T07:03:35.315Z,26.42
2023-05-11T07:06:03.359Z,27.61
2023-05-11T07:08:30.697Z,26.63
2023-05-11T07:10:58.287Z,27.05
2023-05-11T07:13:25.993Z,29.05
2023-05-11T07:15:54.648Z,29.69
2023-05-11T07:18:24.070Z,31.10
2023-05-11T07:20:51.801Z,30.66
2023-05-11T07:23:19.172Z,31.07
2023-05-11T07:25:46.504Z,29.57
2023-05-11T07:28:14.255Z,32.68
2023-05-11T07:30:41.595Z,32.13
2023-05-11T07:33:09.035Z,33.06
2023-05-11T07:35:36.975Z,30.08
2023-05-11T07:38:06.177Z,31.65
2023-05-11T07:40:33.814Z,31.36
2023-05-11T07:43:01.856Z,31.09
2023-05-11T07:45:29.237Z,28.32
2023-05-11T07:47:56.791Z,28.15
2023-05-11T07:50:24.966Z,29.39
2023-05-11T07:52:52.572Z,29.61
2023-05-11T07:55:24.911Z,31.69
2023-05-11T07:57:54.348Z,30.40
2023-05-11T08:00:21.971Z,28.45
2023-05-11T08:02:49.683Z,30.03
2023-05-11T08:05:17.639Z,31.07
2023-05-11T08:07:45.201Z,30.00
2023-05-11T08:10:12.954Z,32.28
2023-05-11T08:12:40.355Z,29.62
2023-05-11T08:15:08.202Z,29.25
2023-05-11T08:17:36.586Z,32.56
2023-05-11T08:20:07.360Z,33.27
2023-05-11T08:22:35.019Z,33.02
2023-05-11T08:25:03.647Z,33.48
2023-05-11T08:27:30.964Z,33.35
2023-05-11T08:29:58.419Z,32.70
2023-05-11T08:32:27.272Z,33.13
2023-05-11T08:34:55.133Z,34.08
2023-05-11T08:37:22.871Z,31.59
2023-05-11T08:39:51.285Z,28.61
2023-05-11T08:42:18.646Z,29.53
2023-05-11T08:44:46.025Z,30.90
2023-05-11T08:49:43.898Z,29.70
2023-05-11T08:52:11.332Z,30.19
2023-05-11T08:54:39.129Z,30.69
2023-05-11T08:57:07.161Z,29.62
2023-05-11T08:59:34.513Z,32.54
2023-05-11T09:02:02.269Z,34.76
2023-05-11T09:04:29.663Z,33.71
2023-05-11T09:06:57.630Z,34.53
2023-05-11T09:09:25.238Z,34.24
2023-05-11T09:11:54.140Z,34.02
2023-05-11T09:14:27.150Z,32.29
2023-05-11T09:16:55.081Z,33.55
2023-05-11T09:19:22.523Z,33.40
2023-05-11T09:21:52.130Z,35.35
2023-05-11T09:24:20.432Z,30.66
2023-05-11T09:26:48.008Z,33.46
2023-05-11T09:29:16.020Z,32.32
2023-05-11T09:31:44.879Z,34.51
2023-05-11T09:34:22.777Z,35.43
2023-05-11T09:36:55.218Z,32.64
2023-05-11T09:42:21.564Z,31.60
2023-05-11T09:44:48.936Z,33.83
2023-05-11T09:47:21.165Z,34.83
2023-05-11T09:49:48.918Z,33.28
2023-05-11T09:52:17.506Z,35.50
2023-05-11T09:54:46.435Z,33.34
2023-05-11T09:57:24.111Z,29.31
2023-05-11T09:59:51.784Z,29.77
2023-05-11T10:02:29.673Z,31.47
2023-05-11T10:04:58.471Z,33.29
2023-05-11T10:07:30.057Z,31.91
2023-05-11T10:10:04.880Z,28.98
2023-05-11T10:12:33.605Z,30.99
2023-05-11T10:15:02.594Z,30.99
2023-05-11T10:17:30.963Z,28.22
2023-05-11T10:19:58.536Z,28.06
2023-05-11T10:22:26.800Z,29.00
2023-05-11T10:24:54.783Z,29.12
2023-05-11T10:27:22.291Z,28.70
2023-05-11T10:29:50.516Z,28.77
2023-05-11T10:32:18.745Z,26.84
2023-05-11T10:34:46.724Z,29.35
2023-05-11T10:37:15.305Z,27.86
2023-05-11T10:39:43.408Z,28.89
2023-05-11T10:42:33.627Z,28.33
2023-05-11T10:45:27.249Z,28.13
2023-05-11T10:48:03.811Z,28.17
2023-05-11T10:50:46.718Z,26.59
2023-05-11T10:53:24.593Z,25.08
2023-05-11T10:56:13.558Z,23.97
2023-05-11T10:58:57.926Z,24.81
2023-05-11T11:01:40.837Z,24.56
2023-05-11T11:04:14.502Z,24.72
2023-05-11T11:06:43.143Z,24.22
2023-05-11T11:09:13.542Z,24.85
2023-05-11T11:11:47.879Z,23.70
2023-05-11T11:14:16.020Z,23.55
2023-05-11T11:17:14.640Z,24.37
2023-05-11T11:19:42.466Z,24.37
2023-05-11T11:22:34.792Z,24.85
2023-05-11T11:25:05.285Z,24.06
2023-05-11T11:27:41.937Z,23.55
2023-05-11T11:30:19.152Z,23.04
2023-05-11T11:32:53.597Z,23.67
2023-05-11T11:35:39.522Z,22.87
2023-05-11T11:38:08.011Z,22.28
2023-05-11T11:40:49.600Z,22.82
2023-05-11T11:43:25.896Z,23.60
2023-05-11T11:45:54.113Z,22.49
2023-05-11T11:48:22.795Z,23.70
2023-05-11T11:50:50.282Z,23.55
2023-05-11T11:53:36.404Z,23.62
2023-05-11T11:56:04.530Z,23.68
2023-05-11T11:58:41.131Z,23.13
2023-05-11T12:01:19.009Z,22.73
2023-05-11T12:03:47.702Z,22.66
2023-05-11T12:06:15.464Z,23.35
2023-05-11T12:08:43.593Z,22.71
2023-05-11T12:11:11.210Z,22.94
2023-05-11T12:13:38.589Z,23.21
2023-05-11T12:16:16.684Z,23.48
2023-05-11T12:18:55.350Z,23.40
2023-05-11T12:21:27.695Z,23.49
2023-05-11T12:24:02.521Z,23.51
2023-05-11T12:26:30.896Z,23.04
2023-05-11T12:29:14.533Z,22.56
2023-05-11T12:31:43.497Z,22.25
2023-05-11T12:34:17.913Z,22.65
2023-05-11T12:36:45.988Z,21.93
2023-05-11T12:39:24.036Z,21.80
2023-05-11T12:41:53.545Z,22.95
2023-05-11T12:44:22.686Z,22.97
2023-05-11T12:46:50.606Z,23.50
2023-05-11T12:52:02.200Z,23.17
2023-05-11T12:54:39.206Z,22.10
2023-05-11T12:57:08.399Z,22.63
2023-05-11T12:59:41.943Z,22.56
2023-05-11T13:02:10.261Z,21.84
2023-05-11T13:04:39.719Z,22.32
2023-05-11T13:07:07.208Z,22.66
2023-05-11T13:09:34.894Z,22.93
2023-05-11T13:12:13.411Z,22.73
2023-05-11T13:14:41.666Z,22.84
2023-05-11T13:17:09.062Z,22.58
2023-05-11T13:19:37.677Z,23.32
2023-05-11T13:22:05.843Z,23.23
2023-05-11T13:24:34.642Z,22.20
2023-05-11T13:27:02.321Z,22.85
2023-05-11T13:29:30.031Z,21.92
2023-05-11T13:31:57.437Z,22.63
2023-05-11T13:34:25.146Z,22.74
2023-05-11T13:36:52.777Z,22.04
2023-05-11T13:39:20.878Z,22.47
2023-05-11T13:41:48.582Z,22.85
2023-05-11T13:44:16.789Z,23.23
2023-05-11T13:46:44.211Z,22.82
2023-05-11T13:49:12.120Z,23.27
2023-05-11T13:51:39.741Z,23.25
2023-05-11T13:54:07.168Z,22.90
2023-05-11T13:56:34.601Z,23.21
2023-05-11T13:59:02.251Z,23.47
2023-05-11T14:01:29.720Z,24.33
2023-05-11T14:03:57.435Z,23.71
2023-05-11T14:06:25.154Z,23.18
2023-05-11T14:08:52.748Z,22.14
2023-05-11T14:11:21.078Z,23.23
2023-05-11T14:13:51.800Z,22.98
2023-05-11T14:16:19.806Z,23.73
2023-05-11T14:18:48.323Z,22.85
2023-05-11T14:21:16.086Z,23.02
2023-05-11T14:23:53.758Z,23.61
2023-05-11T14:26:30.011Z,23.06
2023-05-11T14:28:57.509Z,22.83
2023-05-11T14:31:26.011Z,23.18
2023-05-11T14:33:53.654Z,23.56
2023-05-11T14:36:21.398Z,23.65
2023-05-11T14:38:48.775Z,22.54
2023-05-11T14:41:16.428Z,23.18
2023-05-11T14:43:43.756Z,23.76
2023-05-11T14:46:11.270Z,23.08
2023-05-11T14:48:38.945Z,23.83
2023-05-11T14:51:06.441Z,23.28
2023-05-11T14:53:33.823Z,23.67
2023-05-11T14:56:01.445Z,22.82
2023-05-11T14:58:28.831Z,23.62
2023-05-11T15:00:56.276Z,22.91
2023-05-11T15:03:25.160Z,23.76
2023-05-11T15:05:52.577Z,24.21
2023-05-11T15:08:29.700Z,23.21
2023-05-11T15:10:58.132Z,21.85
2023-05-11T15:13:25.601Z,22.29
2023-05-11T15:15:53.056Z,21.78
2023-05-11T15:18:20.851Z,21.91
2023-05-11T15:20:48.264Z,22.30
2023-05-11T15:23:16.955Z,22.79
2023-05-11T15:25:45.355Z,23.21
2023-05-11T15:28:13.025Z,22.36
2023-05-11T15:30:41.642Z,22.50
2023-05-11T15:33:10.066Z,22.43
2023-05-11T15:35:37.914Z,22.99
2023-05-11T15:38:05.455Z,23.18
2023-05-11T15:40:33.253Z,23.39
2023-05-11T15:43:00.819Z,23.52
2023-05-11T15:45:29.118Z,23.58
2023-05-11T15:47:57.421Z,23.59
2023-05-11T15:50:25.180Z,23.09
2023-05-11T15:52:52.721Z,23.25
2023-05-11T15:55:20.311Z,23.25
2023-05-11T15:57:47.678Z,23.23
2023-05-11T16:00:15.772Z,23.46
2023-05-11T16:02:45.678Z,23.47
2023-05-11T16:05:13.236Z,23.47
2023-05-11T16:07:40.590Z,23.36
2023-05-11T16:10:08.780Z,23.24
2023-05-11T16:12:36.223Z,23.53
2023-05-11T16:15:03.770Z,23.53
2023-05-11T16:17:31.924Z,23.54
2023-05-11T16:20:00.463Z,23.52
2023-05-11T16:22:28.142Z,23.27
2023-05-11T16:24:55.757Z,23.15
2023-05-11T16:27:23.352Z,23.25
2023-05-11T16:29:52.242Z,23.01
2023-05-11T16:32:20.320Z,23.00
2023-05-11T16:34:47.658Z,22.95
2023-05-11T16:37:15.416Z,22.95
2023-05-11T16:39:43.038Z,22.79
2023-05-11T16:42:10.650Z,22.93
2023-05-11T16:44:38.025Z,22.55
2023-05-11T16:47:05.766Z,22.40
2023-05-11T16:49:33.468Z,22.62
2023-05-11T16:52:00.820Z,22.17
2023-05-11T16:54:29.138Z,22.19
2023-05-11T16:56:56.786Z,21.98
2023-05-11T16:59:24.171Z,22.20
2023-05-11T17:01:51.852Z,21.99
2023-05-11T17:04:19.236Z,22.06
2023-05-11T17:06:46.663Z,22.00
2023-05-11T17:09:14.319Z,21.95
2023-05-11T17:11:41.707Z,21.67
2023-05-11T17:14:09.057Z,21.64
2023-05-11T17:16:36.655Z,21.63
2023-05-11T17:19:04.116Z,21.60
2023-05-11T17:21:32.324Z,21.77
2023-05-11T17:23:59.917Z,21.68
2023-05-11T17:26:35.479Z,21.77
2023-05-11T17:29:11.414Z,21.68
2023-05-11T17:31:39.148Z,21.63
2023-05-11T17:34:08.696Z,21.59
2023-05-11T17:36:36.441Z,21.11
2023-05-11T17:39:03.847Z,21.19
2023-05-11T17:41:31.996Z,21.18
2023-05-11T17:43:59.715Z,21.18
2023-05-11T17:46:28.254Z,20.80
2023-05-11T17:48:56.106Z,20.82
2023-05-11T17:51:23.925Z,20.91
2023-05-11T17:53:51.336Z,20.73
2023-05-11T17:56:19.165Z,20.78
2023-05-11T17:58:47.611Z,20.82
2023-05-11T18:01:15.023Z,20.63
2023-05-11T18:03:42.842Z,20.41
2023-05-11T18:06:10.297Z,20.46
2023-05-11T18:08:38.360Z,20.45
2023-05-11T18:11:07.514Z,20.38
2023-05-11T18:13:35.588Z,20.46
2023-05-11T18:16:03.080Z,20.54
2023-05-11T18:18:30.791Z,19.95
2023-05-11T18:20:58.141Z,19.96
2023-05-11T18:23:25.499Z,19.50
2023-05-11T18:25:53.244Z,19.63
2023-05-11T18:28:20.583Z,19.69
2023-05-11T18:30:47.982Z,19.36
2023-05-11T18:33:15.727Z,18.87
2023-05-11T18:35:43.173Z,18.82
2023-05-11T18:38:10.544Z,18.77
2023-05-11T18:40:38.267Z,18.17
2023-05-11T18:43:05.607Z,18.24
2023-05-11T18:45:34.817Z,17.85
2023-05-11T18:48:03.623Z,17.50
2023-05-11T18:50:31.005Z,17.17
2023-05-11T18:52:58.415Z,17.25
2023-05-11T18:55:29.039Z,16.84
2023-05-11T18:57:58.573Z,17.07
2023-05-11T19:00:26.288Z,16.83
2023-05-11T19:02:54.724Z,16.66
2023-05-11T19:05:22.314Z,16.36
2023-05-11T19:07:49.920Z,16.55
2023-05-11T19:10:18.188Z,16.18
2023-05-11T19:12:46.189Z,16.31
2023-05-11T19:15:13.828Z,16.55
2023-05-11T19:17:41.336Z,15.96
2023-05-11T19:20:09.421Z,16.13
2023-05-11T19:22:37.077Z,16.04
2023-05-11T19:25:05.403Z,15.80
2023-05-11T19:27:32.914Z,16.08
2023-05-11T19:30:00.549Z,16.07
2023-05-11T19:32:28.010Z,15.94
2023-05-11T19:34:55.412Z,15.61
2023-05-11T19:37:23.021Z,15.90
2023-05-11T19:39:51.035Z,15.66
2023-05-11T19:42:25.868Z,15.66
2023-05-11T19:44:59.670Z,15.79
2023-05-11T19:47:27.148Z,15.83
2023-05-11T19:49:54.527Z,15.90
2023-05-11T19:52:22.172Z,15.84
2023-05-11T19:54:49.523Z,15.93
2023-05-11T19:57:17.333Z,15.85
2023-05-11T19:59:44.907Z,15.62
2023-05-11T20:02:12.278Z,15.71
2023-05-11T20:04:45.067Z,15.68
2023-05-11T20:07:12.435Z,15.56
2023-05-11T20:09:40.249Z,15.89
2023-05-11T20:12:07.671Z,15.25
2023-05-11T20:14:36.778Z,15.54
2023-05-11T20:17:05.060Z,15.32
2023-05-11T20:19:32.450Z,15.40
2023-05-11T20:21:59.819Z,15.63
2023-05-11T20:24:27.470Z,15.41
2023-05-11T20:26:54.822Z,15.83
2023-05-11T20:29:22.278Z,15.20
2023-05-11T20:31:49.971Z,15.63
2023-05-11T20:34:17.461Z,15.41
2023-05-11T20:36:44.872Z,15.43
2023-05-11T20:39:13.393Z,15.67
2023-05-11T20:41:40.873Z,16.05
2023-05-11T20:44:13.645Z,15.67
2023-05-11T20:46:41.301Z,15.61
2023-05-11T20:49:10.293Z,15.92
2023-05-11T20:51:37.686Z,15.43
2023-05-11T20:54:07.228Z,15.69
2023-05-11T20:56:34.637Z,15.49
2023-05-11T20:59:01.997Z,15.41
2023-05-11T21:01:29.655Z,15.70
2023-05-11T21:03:57.134Z,15.45
2023-05-11T21:06:24.489Z,15.10
2023-05-11T21:08:52.115Z,15.12
2023-05-11T21:11:19.486Z,15.22
2023-05-11T21:13:46.898Z,15.54
2023-05-11T21:16:14.552Z,15.56
2023-05-11T21:18:43.112Z,15.49
2023-05-11T21:21:10.485Z,15.20
2023-05-11T21:23:38.142Z,15.40
2023-05-11T21:26:05.560Z,15.21
2023-05-11T21:28:34.627Z,15.47
2023-05-11T21:31:02.275Z,15.63
2023-05-11T21:33:29.615Z,15.29
2023-05-11T21:35:57.199Z,15.42
2023-05-11T21:38:24.830Z,15.27
2023-05-11T21:40:55.278Z,15.52
2023-05-11T21:43:22.685Z,15.29
2023-05-11T21:45:50.485Z,15.03
2023-05-11T21:48:17.847Z,15.52
2023-05-11T21:50:45.319Z,14.95
2023-05-11T21:53:13.103Z,14.96
2023-05-11T21:55:40.464Z,14.82
2023-05-11T21:58:08.796Z,15.02
2023-05-11T22:00:37.326Z,14.75
2023-05-11T22:03:05.050Z,15.09
2023-05-11T22:05:32.438Z,15.40
2023-05-11T22:08:13.220Z,15.18
2023-05-11T22:10:43.061Z,14.70
2023-05-11T22:13:10.784Z,15.61
2023-05-11T22:15:38.315Z,15.28
2023-05-11T22:18:06.063Z,15.18
2023-05-11T22:20:33.479Z,15.32
2023-05-11T22:23:00.814Z,15.68
2023-05-11T22:25:28.458Z,15.41
2023-05-11T22:27:55.838Z,15.63
2023-05-11T22:30:23.302Z,15.72
2023-05-11T22:32:50.977Z,15.48
2023-05-11T22:35:18.431Z,14.97
2023-05-11T22:37:45.795Z,15.46
2023-05-11T22:40:13.366Z,15.70
2023-05-11T22:42:41.681Z,15.26
2023-05-11T22:45:09.520Z,15.65
2023-05-11T22:47:37.182Z,15.41
2023-05-11T22:50:04.820Z,15.72
2023-05-11T22:52:32.297Z,15.88
2023-05-11T22:54:59.890Z,16.05
2023-05-11T22:57:27.758Z,15.82
2023-05-11T22:59:55.141Z,15.93
2023-05-11T23:02:23.278Z,16.12
2023-05-11T23:04:51.950Z,16.33
2023-05-11T23:07:19.610Z,15.74
2023-05-11T23:09:47.606Z,15.64
2023-05-11T23:12:15.012Z,15.64
2023-05-11T23:14:42.374Z,15.95
2023-05-11T23:17:10.031Z,15.67
2023-05-11T23:19:37.425Z,15.88
2023-05-11T23:22:04.920Z,14.97
2023-05-11T23:24:32.526Z,15.74
2023-05-11T23:27:00.145Z,14.93
2023-05-11T23:29:27.949Z,14.53
2023-05-11T23:31:56.154Z,15.36
2023-05-11T23:34:23.479Z,15.54
2023-05-11T23:36:50.806Z,15.74
2023-05-11T23:39:18.590Z,15.87
2023-05-11T23:41:46.141Z,15.76
2023-05-11T23:44:13.493Z,15.40
2023-05-11T23:46:41.093Z,15.14
2023-05-11T23:49:08.491Z,15.41
2023-05-11T23:51:35.845Z,15.60
2023-05-11T23:54:03.513Z,15.51
2023-05-11T23:56:30.866Z,15.22
2023-05-11T23:58:58.194Z,15.08
